createdAt,value
2019-02-28T00:03:20.486Z,7.3
2019-02-28T00:13:21.651Z,7.3
2019-02-28T00:23:19.145Z,7.2
2019-02-28T00:33:18.015Z,7.1
2019-02-28T00:43:17.217Z,7.1
2019-02-28T00:53:16.418Z,7
2019-02-28T01:03:15.620Z,6.9
2019-02-28T01:13:14.823Z,6.9
2019-02-28T01:23:14.025Z,6.9
2019-02-28T01:33:13.228Z,6.9
2019-02-28T01:43:12.433Z,6.9
2019-02-28T01:53:11.629Z,6.9
2019-02-28T02:03:10.835Z,6.8
2019-02-28T02:13:10.030Z,6.8
2019-02-28T02:23:09.238Z,6.7
2019-02-28T02:33:13.479Z,6.8
2019-02-28T02:43:07.636Z,6.8
2019-02-28T02:53:06.891Z,6.8
2019-02-28T03:03:07.603Z,6.8
2019-02-28T03:13:06.400Z,6.7
2019-02-28T03:23:04.452Z,6.6
2019-02-28T03:33:03.652Z,6.6
2019-02-28T03:43:06.607Z,6.7
2019-02-28T03:53:02.055Z,6.6
2019-02-28T04:03:01.267Z,6.6
2019-02-28T04:13:00.478Z,6.6
2019-02-28T04:23:00.296Z,6.6
2019-02-28T04:33:01.378Z,6.5
2019-02-28T04:42:58.061Z,6.6
2019-02-28T04:52:57.267Z,6.6
2019-02-28T05:02:56.467Z,6.6
2019-02-28T05:12:55.665Z,6.6
2019-02-28T05:22:54.870Z,6.6
2019-02-28T05:32:54.072Z,6.1
2019-02-28T05:42:54.593Z,5.1
2019-02-28T05:52:52.486Z,5.5
2019-02-28T06:02:54.367Z,6.6
2019-02-28T06:12:50.895Z,7.9
2019-02-28T06:22:50.104Z,9.3
2019-02-28T06:32:49.305Z,10.8
2019-02-28T06:42:48.561Z,12.3
2019-02-28T06:52:47.712Z,13.6
2019-02-28T07:02:46.915Z,15.1
2019-02-28T07:12:46.121Z,16.4
2019-02-28T07:22:45.325Z,17.9
2019-02-28T07:32:44.531Z,18.9
2019-02-28T07:42:43.735Z,19.5
2019-02-28T07:52:42.942Z,20.3
2019-02-28T08:02:42.155Z,20.3
2019-02-28T08:12:41.350Z,20.8
2019-02-28T08:22:40.554Z,21.3
2019-02-28T08:32:43.513Z,21.4
2019-02-28T08:42:39.810Z,22.1
2019-02-28T08:52:40.991Z,22.2
2019-02-28T09:02:37.441Z,22.6
2019-02-28T09:12:36.606Z,23.1
2019-02-28T09:22:35.805Z,23.3
2019-02-28T09:32:35.012Z,22.6
2019-02-28T09:42:34.220Z,22.6
2019-02-28T09:52:33.428Z,22.3
2019-02-28T10:02:32.637Z,21.6
2019-02-28T10:12:31.848Z,21.1
2019-02-28T10:22:31.066Z,21.3
2019-02-28T10:32:30.271Z,20.6
2019-02-28T10:42:29.482Z,20.4
2019-02-28T10:52:30.585Z,20.4
2019-02-28T11:06:53.546Z,19.8
2019-02-28T11:17:44.610Z,18.4
2019-02-28T11:27:42.889Z,17.7
2019-02-28T11:37:42.299Z,17.2
2019-02-28T11:47:42.618Z,17.1
2019-02-28T11:57:41.174Z,16.8
2019-02-28T12:07:39.721Z,16.3
2019-02-28T12:17:38.973Z,16
2019-02-28T12:27:38.256Z,15.8
2019-02-28T12:37:37.543Z,15.5
2019-02-28T12:47:38.573Z,15.4
2019-02-28T12:57:36.107Z,15.3
2019-02-28T13:07:35.390Z,15.1
2019-02-28T13:17:34.598Z,15
2019-02-28T13:27:33.796Z,14.8
2019-02-28T13:37:33.006Z,14.6
2019-02-28T13:47:32.201Z,14.6
2019-02-28T13:57:31.404Z,14.4
2019-02-28T14:07:33.651Z,14.4
2019-02-28T14:17:32.462Z,14.3
2019-02-28T14:27:29.011Z,14.2
2019-02-28T14:37:28.213Z,13.9
2019-02-28T14:47:28.387Z,13.7
2019-02-28T14:57:26.617Z,13.4
2019-02-28T15:07:25.821Z,13.3
2019-02-28T15:17:25.070Z,13.1
2019-02-28T15:27:24.223Z,12.9
2019-02-28T15:37:23.429Z,12.6
2019-02-28T15:47:22.994Z,12.1
2019-02-28T15:57:21.891Z,11.8
2019-02-28T16:07:21.052Z,11.5
2019-02-28T16:17:20.257Z,11.2
2019-02-28T16:27:19.464Z,11
2019-02-28T16:37:18.677Z,11.3
2019-02-28T16:47:17.883Z,11.3
2019-02-28T16:57:17.144Z,11.4
2019-02-28T17:07:16.298Z,11.5
2019-02-28T17:17:15.505Z,11.6
2019-02-28T17:27:14.762Z,11.7
2019-02-28T17:43:43.213Z,11.9
2019-02-28T17:53:45.621Z,12.1
2019-02-28T18:03:41.630Z,12.2
2019-02-28T18:13:40.893Z,12.2
2019-02-28T18:23:40.048Z,12.2
2019-02-28T18:33:41.744Z,12.3
2019-02-28T18:43:40.393Z,12.3
2019-02-28T18:53:37.805Z,12.3
2019-02-28T19:03:37.144Z,12.5
2019-02-28T19:13:36.384Z,12.6
2019-02-28T19:23:35.674Z,12.8
2019-02-28T19:33:35.015Z,12.8
2019-02-28T19:43:34.228Z,12.8
2019-02-28T19:53:33.382Z,13
2019-02-28T20:03:32.595Z,12.9
2019-02-28T20:13:31.898Z,12.7
2019-02-28T20:23:31.077Z,12.6
2019-02-28T20:33:30.239Z,12.8
2019-02-28T20:43:29.458Z,12.8
2019-02-28T20:53:28.679Z,12.8
2019-02-28T21:03:27.938Z,12.9
2019-02-28T21:13:21.031Z,12.9
2019-02-28T21:23:20.244Z,12.9
2019-02-28T21:33:19.508Z,12.8
2019-02-28T21:43:18.671Z,12.5
2019-02-28T21:53:17.884Z,11.5
2019-02-28T22:03:17.092Z,10.7
2019-02-28T22:13:16.400Z,10.1
2019-02-28T22:23:15.647Z,9.8
2019-02-28T22:33:14.985Z,9.6
2019-02-28T22:43:14.220Z,9.6
2019-02-28T22:53:13.510Z,9.6
2019-02-28T23:03:12.796Z,9.4
2019-02-28T23:13:12.048Z,9.4
2019-02-28T23:23:11.215Z,9.2
2019-02-28T23:33:10.415Z,9.1
2019-02-28T23:43:09.619Z,9
2019-02-28T23:53:08.827Z,8.8
